KEUG/EUG METAR and TAF weather

Enter ICAO airport designator
Station Type Date Time Source
KEUG METAR 2021/05/15 01:54 UTC NOAA

KEUG 150154Z 33009KT 10SM FEW060 24/10 A2998 RMK AO2 SLP151 T02390100


Station Type Date Time Source
KEUG Decoded METAR 2021/05/15 01:54 UTC NOAA

MAHLON SWEET FIELD, OR, United States (KEUG) 44-08N 123-13W 114M
May 14, 2021 - 09:54 PM EDT / 2021.05.15 0154 UTC
Wind: from the NNW (330 degrees) at 10 MPH (9 KT):0
Visibility: 10 mile(s):0
Sky conditions: mostly clear
Temperature: 75.0 F (23.9 C)
Dew Point: 50.0 F (10.0 C)
Relative Humidity: 41%
Pressure (altimeter): 29.98 in. Hg (1015 hPa)
ob: KEUG 150154Z 33009KT 10SM FEW060 24/10 A2998 RMK AO2 SLP151 T02390100
cycle: 2

Station Type Date Time Source
KEUG TAF 2021/05/14 20:21 UTC NOAA

TAF
AMD KEUG 142019Z 1420/1518 01013G20KT P6SM SKC
FM150300 34005KT P6SM SKC
FM150600 VRB03KT P6SM SKC

Example: see airport list